createdAt,value
2023-01-13T00:00:59.297Z,62.40
2023-01-13T00:03:26.054Z,62.40
2023-01-13T00:05:52.786Z,62.30
2023-01-13T00:08:19.504Z,62.30
2023-01-13T00:10:49.304Z,62.20
2023-01-13T00:13:16.149Z,62.10
2023-01-13T00:15:43.456Z,62.10
2023-01-13T00:18:10.264Z,62.10
2023-01-13T00:20:36.995Z,62.10
2023-01-13T00:23:04.496Z,62.00
2023-01-13T00:25:31.222Z,62.00
2023-01-13T00:27:57.946Z,62.00
2023-01-13T00:30:24.683Z,62.00
2023-01-13T00:32:51.387Z,62.00
2023-01-13T00:35:18.168Z,62.00
2023-01-13T00:37:44.863Z,61.90
2023-01-13T00:40:12.398Z,62.00
2023-01-13T00:42:58.025Z,62.00
2023-01-13T00:45:24.737Z,62.00
2023-01-13T00:47:51.473Z,62.00
2023-01-13T00:50:18.334Z,62.00
2023-01-13T00:52:45.117Z,62.00
2023-01-13T00:55:11.892Z,62.00
2023-01-13T00:57:40.132Z,62.00
2023-01-13T01:00:07.610Z,62.10
2023-01-13T01:02:34.450Z,62.20
2023-01-13T01:05:01.254Z,62.20
2023-01-13T01:07:28.125Z,62.20
2023-01-13T01:09:55.255Z,62.20
2023-01-13T01:12:21.968Z,62.30
2023-01-13T01:14:48.752Z,62.40
2023-01-13T01:17:15.462Z,62.40
2023-01-13T01:19:42.376Z,62.50
2023-01-13T01:22:09.091Z,62.60
2023-01-13T01:24:35.816Z,62.60
2023-01-13T01:27:02.606Z,62.60
2023-01-13T01:29:29.540Z,62.70
2023-01-13T01:31:57.889Z,62.60
2023-01-13T01:34:24.669Z,62.70
2023-01-13T01:36:51.381Z,62.60
2023-01-13T01:39:18.116Z,62.60
2023-01-13T01:42:04.865Z,62.50
2023-01-13T01:44:52.449Z,62.50
2023-01-13T01:47:20.355Z,62.60
2023-01-13T01:49:48.795Z,62.70
2023-01-13T01:52:21.066Z,62.90
2023-01-13T01:54:56.431Z,63.00
2023-01-13T01:57:27.107Z,63.20
2023-01-13T01:59:54.554Z,63.30
2023-01-13T02:02:22.312Z,63.50
2023-01-13T02:04:53.506Z,63.60
2023-01-13T02:07:25.031Z,63.70
2023-01-13T02:09:54.161Z,63.70
2023-01-13T02:12:30.518Z,63.60
2023-01-13T02:15:05.170Z,63.70
2023-01-13T02:18:19.521Z,63.70
2023-01-13T02:21:01.517Z,63.70
2023-01-13T02:24:24.478Z,63.60
2023-01-13T02:27:15.995Z,63.60
2023-01-13T02:30:17.813Z,63.70
2023-01-13T02:33:10.989Z,63.90
2023-01-13T02:35:50.672Z,64.00
2023-01-13T02:38:23.565Z,64.10
2023-01-13T02:40:59.316Z,64.30
2023-01-13T02:43:51.046Z,64.50
2023-01-13T02:46:31.648Z,64.60
2023-01-13T02:49:04.798Z,64.80
2023-01-13T02:51:33.051Z,65.00
2023-01-13T02:54:20.958Z,65.10
2023-01-13T02:56:51.135Z,65.20
2023-01-13T02:59:19.530Z,65.20
2023-01-13T03:01:47.668Z,65.30
2023-01-13T03:04:35.612Z,65.30
2023-01-13T03:07:12.821Z,65.40
2023-01-13T03:09:49.529Z,65.40
2023-01-13T03:12:24.734Z,65.50
2023-01-13T03:15:04.205Z,65.60
2023-01-13T03:17:36.203Z,65.70
2023-01-13T03:20:21.510Z,65.70
2023-01-13T03:22:58.786Z,65.70
2023-01-13T03:25:29.967Z,65.70
2023-01-13T03:28:05.174Z,65.70
2023-01-13T03:30:42.714Z,65.70
2023-01-13T03:33:17.629Z,65.70
2023-01-13T03:35:49.285Z,65.70
2023-01-13T03:38:21.857Z,65.70
2023-01-13T03:41:13.635Z,65.80
2023-01-13T03:44:12.693Z,65.80
2023-01-13T03:47:00.320Z,65.90
2023-01-13T03:49:36.788Z,65.90
2023-01-13T03:52:07.744Z,66.00
2023-01-13T03:54:42.449Z,66.00
2023-01-13T03:57:12.119Z,66.00
2023-01-13T03:59:43.303Z,66.00
2023-01-13T04:02:45.071Z,66.00
2023-01-13T04:05:12.616Z,66.00
2023-01-13T04:07:44.251Z,66.00
2023-01-13T04:10:12.006Z,66.10
2023-01-13T04:13:02.476Z,66.20
2023-01-13T04:15:39.077Z,66.30
2023-01-13T04:18:26.584Z,66.60
2023-01-13T04:20:56.024Z,66.80
2023-01-13T04:23:22.959Z,67.20
2023-01-13T04:25:50.692Z,67.50
2023-01-13T04:28:18.530Z,68.00
2023-01-13T04:30:46.108Z,68.30
2023-01-13T04:33:13.670Z,68.60
2023-01-13T04:35:40.603Z,68.90
2023-01-13T04:38:10.259Z,69.10
2023-01-13T04:40:36.918Z,69.30
2023-01-13T04:43:03.780Z,69.50
2023-01-13T04:45:30.639Z,69.70
2023-01-13T04:47:57.474Z,69.80
2023-01-13T04:50:25.004Z,69.90
2023-01-13T04:52:52.695Z,70.00
2023-01-13T04:55:21.007Z,70.10
2023-01-13T04:57:47.617Z,70.30
2023-01-13T05:00:16.525Z,70.30
2023-01-13T05:02:43.122Z,70.50
2023-01-13T05:05:10.725Z,70.60
2023-01-13T05:07:37.389Z,70.70
2023-01-13T05:10:04.839Z,70.80
2023-01-13T05:12:50.164Z,70.90
2023-01-13T05:15:35.437Z,71.00
2023-01-13T05:18:02.441Z,71.10
2023-01-13T05:20:29.142Z,71.20
2023-01-13T05:23:14.367Z,71.30
2023-01-13T05:25:44.588Z,71.40
2023-01-13T05:28:11.609Z,71.50
2023-01-13T05:30:43.447Z,71.50
2023-01-13T05:33:15.009Z,71.80
2023-01-13T05:35:43.728Z,71.80
2023-01-13T05:38:10.705Z,71.80
2023-01-13T05:41:00.100Z,71.80
2023-01-13T05:43:27.582Z,71.90
2023-01-13T05:46:01.587Z,71.80
2023-01-13T05:48:37.106Z,71.80
2023-01-13T05:51:05.696Z,71.80
2023-01-13T05:53:32.913Z,71.80
2023-01-13T05:56:00.343Z,71.80
2023-01-13T05:58:28.021Z,71.80
2023-01-13T06:01:04.620Z,71.80
2023-01-13T06:03:31.528Z,71.90
2023-01-13T06:06:02.231Z,71.80
2023-01-13T06:08:29.974Z,71.80
2023-01-13T06:10:57.209Z,71.70
2023-01-13T06:13:25.321Z,71.60
2023-01-13T06:15:55.068Z,71.50
2023-01-13T06:18:21.707Z,71.50
2023-01-13T06:20:48.287Z,71.40
2023-01-13T06:23:14.919Z,71.30
2023-01-13T06:26:09.833Z,71.20
2023-01-13T06:28:36.803Z,71.10
2023-01-13T06:31:07.249Z,70.90
2023-01-13T06:33:37.836Z,70.80
2023-01-13T06:36:10.081Z,70.60
2023-01-13T06:38:40.713Z,70.50
2023-01-13T06:41:07.997Z,70.30
2023-01-13T06:43:35.645Z,70.10
2023-01-13T06:46:03.051Z,69.90
2023-01-13T06:48:35.599Z,69.80
2023-01-13T06:51:03.815Z,69.50
2023-01-13T06:53:30.685Z,69.40
2023-01-13T06:55:57.513Z,69.20
2023-01-13T06:58:24.171Z,69.10
2023-01-13T07:00:51.672Z,69.00
2023-01-13T07:03:19.650Z,69.00
2023-01-13T07:05:53.440Z,68.90
2023-01-13T07:08:20.473Z,68.90
2023-01-13T07:10:47.176Z,68.80
2023-01-13T07:13:32.738Z,68.80
2023-01-13T07:16:04.898Z,68.80
2023-01-13T07:18:32.868Z,68.70
2023-01-13T07:21:02.192Z,68.60
2023-01-13T07:23:30.943Z,68.60
2023-01-13T07:25:59.284Z,68.50
2023-01-13T07:28:27.724Z,68.40
2023-01-13T07:30:54.779Z,68.40
2023-01-13T07:33:21.604Z,68.30
2023-01-13T07:35:49.049Z,68.20
2023-01-13T07:38:16.097Z,68.20
2023-01-13T07:40:42.823Z,68.20
2023-01-13T07:43:33.245Z,68.30
2023-01-13T07:46:05.744Z,68.30
2023-01-13T07:48:34.192Z,68.40
2023-01-13T07:51:08.619Z,68.60
2023-01-13T07:53:36.111Z,69.00
2023-01-13T07:56:04.361Z,69.20
2023-01-13T07:58:32.550Z,69.60
2023-01-13T08:00:59.372Z,69.60
2023-01-13T08:03:27.034Z,69.90
2023-01-13T08:05:53.762Z,70.20
2023-01-13T08:08:20.414Z,70.40
2023-01-13T08:10:47.075Z,70.50
2023-01-13T08:13:19.639Z,70.70
2023-01-13T08:15:48.216Z,70.90
2023-01-13T08:18:15.216Z,71.00
2023-01-13T08:20:41.908Z,71.20
2023-01-13T08:23:08.503Z,71.30
2023-01-13T08:25:35.130Z,71.50
2023-01-13T08:28:01.989Z,71.70
2023-01-13T08:30:28.821Z,71.90
2023-01-13T08:32:55.499Z,72.20
2023-01-13T08:35:22.645Z,72.30
2023-01-13T08:37:50.004Z,72.50
2023-01-13T08:40:18.496Z,72.60
2023-01-13T08:42:48.371Z,72.60
2023-01-13T08:45:15.324Z,72.60
2023-01-13T08:47:42.002Z,72.60
2023-01-13T08:50:09.799Z,72.50
2023-01-13T08:52:36.467Z,72.30
2023-01-13T08:55:03.445Z,72.20
2023-01-13T08:57:30.290Z,72.10
2023-01-13T08:59:56.932Z,71.80
2023-01-13T09:02:24.729Z,71.40
2023-01-13T09:04:51.725Z,71.40
2023-01-13T09:07:18.960Z,71.20
2023-01-13T09:09:45.592Z,71.00
2023-01-13T09:12:33.337Z,71.00
2023-01-13T09:15:00.408Z,70.70
2023-01-13T09:17:27.519Z,70.70
2023-01-13T09:19:54.160Z,70.50
2023-01-13T09:22:21.824Z,70.40
2023-01-13T09:24:48.442Z,70.50
2023-01-13T09:27:15.476Z,70.70
2023-01-13T09:29:42.283Z,70.90
2023-01-13T09:32:12.325Z,70.90
2023-01-13T09:34:58.006Z,70.90
2023-01-13T09:37:24.873Z,70.80
2023-01-13T09:39:51.526Z,70.80
2023-01-13T09:43:07.038Z,70.90
2023-01-13T09:45:50.313Z,70.80
2023-01-13T09:48:26.185Z,70.50
2023-01-13T09:51:20.807Z,70.40
2023-01-13T09:53:55.785Z,70.10
2023-01-13T09:56:24.117Z,70.20
2023-01-13T09:58:50.917Z,70.10
2023-01-13T10:01:33.004Z,70.20
2023-01-13T10:04:14.126Z,70.00
2023-01-13T10:06:44.224Z,70.10
2023-01-13T10:09:18.467Z,70.00
2023-01-13T10:12:06.151Z,69.90
2023-01-13T10:14:43.112Z,69.90
2023-01-13T10:17:39.871Z,69.80
2023-01-13T10:20:26.329Z,70.00
2023-01-13T10:23:14.604Z,69.90
2023-01-13T10:26:23.967Z,69.90
2023-01-13T10:28:57.658Z,69.60
2023-01-13T10:31:25.329Z,69.50
2023-01-13T10:34:00.017Z,69.50
2023-01-13T10:36:27.020Z,69.30
2023-01-13T10:39:07.115Z,69.30
2023-01-13T10:41:36.064Z,69.20
2023-01-13T10:44:09.423Z,69.20
2023-01-13T10:46:54.494Z,69.20
2023-01-13T10:49:36.152Z,69.00
2023-01-13T10:52:05.736Z,69.00
2023-01-13T10:54:32.855Z,68.80
2023-01-13T10:57:28.693Z,68.80
2023-01-13T10:59:55.753Z,68.60
2023-01-13T11:02:30.627Z,68.40
2023-01-13T11:04:58.179Z,68.20
2023-01-13T11:07:40.080Z,68.30
2023-01-13T11:10:14.397Z,68.30
2023-01-13T11:13:14.325Z,68.20
2023-01-13T11:15:56.413Z,68.10
2023-01-13T11:18:40.121Z,67.90
2023-01-13T11:21:11.919Z,67.90
2023-01-13T11:23:47.292Z,68.00
2023-01-13T11:26:20.983Z,68.00
2023-01-13T11:29:04.350Z,67.90
2023-01-13T11:31:36.991Z,67.80
2023-01-13T11:34:08.431Z,67.90
2023-01-13T11:36:41.418Z,67.90
2023-01-13T11:39:41.088Z,67.80
2023-01-13T11:42:24.417Z,67.80
2023-01-13T11:45:01.352Z,67.80
2023-01-13T11:47:28.844Z,67.70
2023-01-13T11:49:55.969Z,67.80
2023-01-13T11:52:48.586Z,67.70
2023-01-13T11:55:29.677Z,67.60
2023-01-13T11:58:13.856Z,67.50
2023-01-13T12:00:52.306Z,67.20
2023-01-13T12:04:13.255Z,67.00
2023-01-13T12:06:41.201Z,66.80
2023-01-13T12:09:26.090Z,66.70
2023-01-13T12:12:35.732Z,66.50
2023-01-13T12:15:24.015Z,66.50
2023-01-13T12:18:17.008Z,66.30
2023-01-13T12:20:53.066Z,66.20
2023-01-13T12:23:57.132Z,66.10
2023-01-13T12:26:24.701Z,66.00
2023-01-13T12:29:04.703Z,66.00
2023-01-13T12:31:34.510Z,65.50
2023-01-13T12:34:22.467Z,65.40
2023-01-13T12:37:16.401Z,64.70
2023-01-13T12:39:49.667Z,64.80
2023-01-13T12:42:42.869Z,65.30
2023-01-13T12:45:12.470Z,65.30
2023-01-13T12:47:44.880Z,65.30
2023-01-13T12:50:23.869Z,65.20
2023-01-13T12:53:21.066Z,65.30
2023-01-13T12:55:53.592Z,65.20
2023-01-13T12:58:28.414Z,64.80
2023-01-13T13:01:10.671Z,64.60
2023-01-13T13:03:37.620Z,64.40
2023-01-13T13:06:22.779Z,64.30
2023-01-13T13:09:05.423Z,63.90
2023-01-13T13:11:59.293Z,63.80
2023-01-13T13:14:37.999Z,63.60
2023-01-13T13:17:25.377Z,63.80
2023-01-13T13:19:52.258Z,63.50
2023-01-13T13:22:27.944Z,63.10
2023-01-13T13:24:54.530Z,62.90
2023-01-13T13:27:42.636Z,62.50
2023-01-13T13:30:22.491Z,61.90
2023-01-13T13:33:19.926Z,61.70
2023-01-13T13:36:04.804Z,61.60
2023-01-13T13:39:14.388Z,61.80
2023-01-13T13:42:05.602Z,61.70
2023-01-13T13:44:56.334Z,61.90
2023-01-13T13:47:23.001Z,62.00
2023-01-13T13:49:56.877Z,62.30
2023-01-13T13:52:54.350Z,62.40
2023-01-13T13:55:21.090Z,62.80
2023-01-13T13:57:51.149Z,63.10
2023-01-13T14:00:30.410Z,63.00
2023-01-13T14:03:02.289Z,63.30
2023-01-13T14:05:33.685Z,63.40
2023-01-13T14:08:02.868Z,63.50
2023-01-13T14:10:33.022Z,63.50
2023-01-13T14:13:01.398Z,63.60
2023-01-13T14:15:34.424Z,63.70
2023-01-13T14:18:03.976Z,63.60
2023-01-13T14:20:31.458Z,63.70
2023-01-13T14:23:01.656Z,63.80
2023-01-13T14:25:45.689Z,64.00
2023-01-13T14:28:32.276Z,64.20
2023-01-13T14:30:59.979Z,64.40
2023-01-13T14:33:39.573Z,64.60
2023-01-13T14:36:07.143Z,64.90
2023-01-13T14:38:33.908Z,65.00
2023-01-13T14:41:10.483Z,65.30
2023-01-13T14:43:43.506Z,65.50
2023-01-13T14:46:10.783Z,65.60
2023-01-13T14:48:37.625Z,65.70
2023-01-13T14:51:09.695Z,65.80
2023-01-13T14:53:46.162Z,65.90
2023-01-13T14:56:39.351Z,66.00
2023-01-13T14:59:35.240Z,66.20
2023-01-13T15:02:22.994Z,66.40
2023-01-13T15:04:53.806Z,66.60
2023-01-13T15:07:30.197Z,66.80
2023-01-13T15:09:59.980Z,67.10
2023-01-13T15:12:39.089Z,67.20
2023-01-13T15:15:18.985Z,67.60
2023-01-13T15:17:46.800Z,67.70
2023-01-13T15:20:14.541Z,67.90
2023-01-13T15:22:41.183Z,68.00
2023-01-13T15:25:12.006Z,68.00
2023-01-13T15:27:39.204Z,68.10
2023-01-13T15:30:26.386Z,68.30
2023-01-13T15:32:57.767Z,68.20
2023-01-13T15:35:27.371Z,68.20
2023-01-13T15:37:56.294Z,67.80
2023-01-13T15:40:33.671Z,67.60
2023-01-13T15:43:19.153Z,67.50
2023-01-13T15:46:04.577Z,67.50
2023-01-13T15:48:32.758Z,67.40
2023-01-13T15:51:00.625Z,67.50
2023-01-13T15:53:28.341Z,67.70
2023-01-13T15:55:57.870Z,67.90
2023-01-13T15:58:28.196Z,68.10
2023-01-13T16:00:55.334Z,68.30
2023-01-13T16:03:22.297Z,68.50
2023-01-13T16:05:49.503Z,68.70
2023-01-13T16:08:22.443Z,68.90
2023-01-13T16:10:49.963Z,69.20
2023-01-13T16:13:17.753Z,69.20
2023-01-13T16:15:49.154Z,69.20
2023-01-13T16:18:26.265Z,69.30
2023-01-13T16:20:55.028Z,69.30
2023-01-13T16:23:22.634Z,69.20
2023-01-13T16:25:49.986Z,69.30
2023-01-13T16:28:28.134Z,69.30
2023-01-13T16:30:54.867Z,69.40
2023-01-13T16:33:21.474Z,69.50
2023-01-13T16:36:11.021Z,69.50
2023-01-13T16:38:34.704Z,69.70
2023-01-13T16:41:01.355Z,69.80
2023-01-13T16:43:27.973Z,69.90
2023-01-13T16:45:54.692Z,70.00
2023-01-13T16:48:22.680Z,70.10
2023-01-13T16:50:49.422Z,70.20
2023-01-13T16:53:16.348Z,70.20
2023-01-13T16:55:43.502Z,70.30
2023-01-13T16:58:17.983Z,70.40
2023-01-13T17:00:48.377Z,70.60
2023-01-13T17:03:16.001Z,70.50
2023-01-13T17:05:44.624Z,70.50
2023-01-13T17:08:17.560Z,70.50
2023-01-13T17:10:45.526Z,70.50
2023-01-13T17:13:16.236Z,70.50
2023-01-13T17:15:44.361Z,70.50
2023-01-13T17:18:13.088Z,70.50
2023-01-13T17:20:39.729Z,70.40
2023-01-13T17:23:06.329Z,70.30
2023-01-13T17:25:32.957Z,70.30
2023-01-13T17:27:59.574Z,70.30
2023-01-13T17:30:26.202Z,70.30
2023-01-13T17:32:52.841Z,70.20
2023-01-13T17:35:24.506Z,70.10
2023-01-13T17:37:52.484Z,70.00
2023-01-13T17:40:19.379Z,69.90
2023-01-13T17:42:45.975Z,69.80
2023-01-13T17:45:12.639Z,69.70
2023-01-13T17:47:39.258Z,69.70
2023-01-13T17:50:06.333Z,69.70
2023-01-13T17:52:34.067Z,69.60
2023-01-13T17:55:00.678Z,69.50
2023-01-13T17:57:27.289Z,69.50
2023-01-13T17:59:53.913Z,69.40
2023-01-13T18:02:20.621Z,69.30
2023-01-13T18:04:47.256Z,69.20
2023-01-13T18:07:13.844Z,69.20
2023-01-13T18:09:40.464Z,69.20
2023-01-13T18:12:07.300Z,69.10
2023-01-13T18:14:34.499Z,69.00
2023-01-13T18:17:01.204Z,68.90
2023-01-13T18:19:46.816Z,68.80
2023-01-13T18:22:32.698Z,68.70
2023-01-13T18:25:17.704Z,68.60
2023-01-13T18:27:44.427Z,68.50
2023-01-13T18:30:12.428Z,68.40
2023-01-13T18:32:39.407Z,68.40
2023-01-13T18:35:10.333Z,68.30
2023-01-13T18:37:40.003Z,68.20
2023-01-13T18:40:09.240Z,68.20
2023-01-13T18:42:52.078Z,68.20
2023-01-13T18:45:21.484Z,68.30
2023-01-13T18:47:48.124Z,68.30
2023-01-13T18:50:15.048Z,68.30
2023-01-13T18:52:41.704Z,68.40
2023-01-13T18:55:08.819Z,68.50
2023-01-13T18:57:40.339Z,68.60
2023-01-13T19:00:12.880Z,68.70
2023-01-13T19:02:39.820Z,68.70
2023-01-13T19:05:06.902Z,68.60
2023-01-13T19:07:35.603Z,68.70
2023-01-13T19:10:04.326Z,68.70
2023-01-13T19:12:31.540Z,68.70
2023-01-13T19:14:59.391Z,68.70
2023-01-13T19:17:30.761Z,68.80
2023-01-13T19:19:58.353Z,68.90
2023-01-13T19:22:30.169Z,69.00
2023-01-13T19:24:57.956Z,69.00
2023-01-13T19:27:27.375Z,68.90
2023-01-13T19:29:57.455Z,69.00
2023-01-13T19:32:25.170Z,69.00
2023-01-13T19:34:51.953Z,69.00
2023-01-13T19:37:19.363Z,69.10
2023-01-13T19:39:46.020Z,69.20
2023-01-13T19:42:32.132Z,69.20
2023-01-13T19:45:17.318Z,69.10
2023-01-13T19:47:45.456Z,69.10
2023-01-13T19:50:13.544Z,69.10
2023-01-13T19:52:43.670Z,69.00
2023-01-13T19:55:12.240Z,69.00
2023-01-13T19:57:40.315Z,68.90
2023-01-13T20:00:08.809Z,68.80
2023-01-13T20:02:36.848Z,68.80
2023-01-13T20:05:06.104Z,68.80
2023-01-13T20:07:35.026Z,68.90
2023-01-13T20:10:01.836Z,69.00
2023-01-13T20:12:29.662Z,69.00
2023-01-13T20:14:56.673Z,69.10
2023-01-13T20:17:25.479Z,69.10
2023-01-13T20:19:52.557Z,69.00
2023-01-13T20:22:19.347Z,69.00
2023-01-13T20:24:45.977Z,69.00
2023-01-13T20:27:12.619Z,69.00
2023-01-13T20:29:39.619Z,69.00
2023-01-13T20:32:06.273Z,69.00
2023-01-13T20:34:32.993Z,68.90
2023-01-13T20:37:00.168Z,68.90
2023-01-13T20:39:27.999Z,68.90
2023-01-13T20:42:13.549Z,68.80
2023-01-13T20:44:40.623Z,68.80
2023-01-13T20:47:07.674Z,68.80
2023-01-13T20:49:36.160Z,68.70
2023-01-13T20:52:09.000Z,68.60
2023-01-13T20:54:40.366Z,68.50
2023-01-13T20:57:09.772Z,68.40
2023-01-13T20:59:38.297Z,68.50
2023-01-13T21:02:07.323Z,68.60
2023-01-13T21:04:33.959Z,68.70
2023-01-13T21:07:00.555Z,68.70
2023-01-13T21:09:27.305Z,68.80
2023-01-13T21:12:12.966Z,68.90
2023-01-13T21:14:59.280Z,69.00
2023-01-13T21:17:44.448Z,69.10
2023-01-13T21:20:13.228Z,69.20
2023-01-13T21:22:40.670Z,69.30
2023-01-13T21:25:07.666Z,69.40
2023-01-13T21:27:34.677Z,69.50
2023-01-13T21:30:01.425Z,69.50
2023-01-13T21:32:28.063Z,69.60
2023-01-13T21:34:54.698Z,69.70
2023-01-13T21:37:22.060Z,69.80
2023-01-13T21:39:48.973Z,69.90
2023-01-13T21:42:35.513Z,70.00
2023-01-13T21:45:21.299Z,70.10
2023-01-13T21:47:50.703Z,70.20
2023-01-13T21:50:20.210Z,70.10
2023-01-13T21:52:48.279Z,70.10
2023-01-13T21:55:25.439Z,70.00
2023-01-13T21:57:53.879Z,70.10
2023-01-13T22:00:22.527Z,70.10
2023-01-13T22:02:49.498Z,70.20
2023-01-13T22:05:18.167Z,70.20
2023-01-13T22:07:45.122Z,70.30
2023-01-13T22:10:17.592Z,70.40
2023-01-13T22:12:44.627Z,70.50
2023-01-13T22:15:14.624Z,70.50
2023-01-13T22:17:42.379Z,70.60
2023-01-13T22:20:14.188Z,70.70
2023-01-13T22:22:41.138Z,70.70
2023-01-13T22:25:10.626Z,70.70
2023-01-13T22:27:43.052Z,70.80
2023-01-13T22:30:14.140Z,70.80
2023-01-13T22:32:40.926Z,70.80
2023-01-13T22:35:09.835Z,70.80
2023-01-13T22:37:37.374Z,70.80
2023-01-13T22:40:05.487Z,70.80
2023-01-13T22:42:32.246Z,70.80
2023-01-13T22:44:58.921Z,70.70
2023-01-13T22:47:25.546Z,70.60
2023-01-13T22:49:52.197Z,70.60
2023-01-13T22:52:18.866Z,70.60
2023-01-13T22:54:45.549Z,70.50
2023-01-13T22:57:12.644Z,70.50
2023-01-13T22:59:39.320Z,70.50
2023-01-13T23:02:06.020Z,70.50
2023-01-13T23:04:32.754Z,70.50
2023-01-13T23:07:00.106Z,70.50
2023-01-13T23:09:29.880Z,70.50
2023-01-13T23:11:58.139Z,70.50
2023-01-13T23:14:25.286Z,70.50
2023-01-13T23:16:52.129Z,70.50
2023-01-13T23:19:18.928Z,70.50
2023-01-13T23:21:45.638Z,70.50
2023-01-13T23:24:12.312Z,70.50
2023-01-13T23:26:39.095Z,70.50
2023-01-13T23:29:09.606Z,70.50
2023-01-13T23:31:36.417Z,70.30
2023-01-13T23:34:03.039Z,70.30
2023-01-13T23:36:29.951Z,70.30
2023-01-13T23:38:58.582Z,70.30
2023-01-13T23:41:27.018Z,70.20
2023-01-13T23:43:55.930Z,70.20
2023-01-13T23:46:23.413Z,70.20
2023-01-13T23:48:50.842Z,70.20
2023-01-13T23:51:18.070Z,70.10
2023-01-13T23:53:46.992Z,70.10
2023-01-13T23:56:21.742Z,70.10
2023-01-13T23:58:49.009Z,70.00
